sensor_id;sensor_type;location;lat;lon;timestamp;pressure;altitude;pressure_sealevel;temperature;humidity
25610;BME280;13479;49.044;8.716;2024-01-11T05:02:03;99907.25;;;-6.50;76.72
25610;BME280;13479;49.044;8.716;2024-01-11T05:04:29;99909.84;;;-6.50;76.70
25610;BME280;13479;49.044;8.716;2024-01-11T05:06:55;99910.69;;;-6.47;76.89
25610;BME280;13479;49.044;8.716;2024-01-11T05:09:20;99921.91;;;-6.42;77.50
25610;BME280;13479;49.044;8.716;2024-01-11T05:11:46;99932.19;;;-6.39;77.57
25610;BME280;13479;49.044;8.716;2024-01-11T05:14:11;99938.22;;;-6.32;77.16
25610;BME280;13479;49.044;8.716;2024-01-11T05:16:36;99945.09;;;-6.25;77.80
25610;BME280;13479;49.044;8.716;2024-01-11T05:19:01;99949.41;;;-6.33;77.22
25610;BME280;13479;49.044;8.716;2024-01-11T05:21:27;99959.78;;;-6.39;77.13
25610;BME280;13479;49.044;8.716;2024-01-11T05:23:52;99966.69;;;-6.47;77.14
25610;BME280;13479;49.044;8.716;2024-01-11T05:26:18;99970.13;;;-6.45;77.31
25610;BME280;13479;49.044;8.716;2024-01-11T05:28:44;99978.72;;;-6.31;77.45
25610;BME280;13479;49.044;8.716;2024-01-11T05:31:10;99975.25;;;-6.33;76.99
25610;BME280;13479;49.044;8.716;2024-01-11T05:33:36;99984.75;;;-6.35;77.37
25610;BME280;13479;49.044;8.716;2024-01-11T05:36:02;99996.81;;;-6.36;76.95
25610;BME280;13479;49.044;8.716;2024-01-11T05:38:27;100008.03;;;-6.38;76.73
25610;BME280;13479;49.044;8.716;2024-01-11T05:40:53;100033.00;;;-6.46;76.48
25610;BME280;13479;49.044;8.716;2024-01-11T05:43:18;100047.63;;;-6.45;77.03
25610;BME280;13479;49.044;8.716;2024-01-11T05:45:43;100061.44;;;-6.49;76.83
25610;BME280;13479;49.044;8.716;2024-01-11T05:48:10;100078.63;;;-6.58;76.25
25610;BME280;13479;49.044;8.716;2024-01-11T05:50:35;100082.09;;;-6.59;76.62
25610;BME280;13479;49.044;8.716;2024-01-11T05:53:00;100086.38;;;-6.59;76.39
25610;BME280;13479;49.044;8.716;2024-01-11T05:55:26;100094.16;;;-6.61;76.15
25610;BME280;13479;49.044;8.716;2024-01-11T05:57:51;100095.84;;;-6.71;76.07
25610;BME280;13479;49.044;8.716;2024-01-11T06:00:17;100087.25;;;-6.71;76.50
25610;BME280;13479;49.044;8.716;2024-01-11T06:02:42;100081.22;;;-6.67;76.94
25610;BME280;13479;49.044;8.716;2024-01-11T06:05:08;100042.47;;;-6.25;76.72
25610;BME280;13479;49.044;8.716;2024-01-11T06:07:35;100047.59;;;-6.11;76.56
25610;BME280;13479;49.044;8.716;2024-01-11T06:10:00;100098.47;;;-6.27;76.53
25610;BME280;13479;49.044;8.716;2024-01-11T06:12:27;100101.06;;;-6.47;76.10
25610;BME280;13479;49.044;8.716;2024-01-11T06:14:53;100070.88;;;-6.64;76.79
25610;BME280;13479;49.044;8.716;2024-01-11T06:17:18;100055.38;;;-6.75;77.05
25610;BME280;13479;49.044;8.716;2024-01-11T06:19:43;100039.88;;;-6.79;77.02
25610;BME280;13479;49.044;8.716;2024-01-11T06:22:08;100012.34;;;-6.79;77.55
25610;BME280;13479;49.044;8.716;2024-01-11T06:24:34;99988.22;;;-6.81;76.90
25610;BME280;13479;49.044;8.716;2024-01-11T06:26:59;99979.59;;;-6.78;77.64
25610;BME280;13479;49.044;8.716;2024-01-11T06:29:25;99983.91;;;-6.70;77.78
25610;BME280;13479;49.044;8.716;2024-01-11T06:31:50;100002.00;;;-6.77;76.90
25610;BME280;13479;49.044;8.716;2024-01-11T06:34:15;100010.59;;;-6.75;77.49
25610;BME280;13479;49.044;8.716;2024-01-11T06:36:40;100006.31;;;-6.83;76.86
25610;BME280;13479;49.044;8.716;2024-01-11T06:39:06;100010.59;;;-6.80;77.24
25610;BME280;13479;49.044;8.716;2024-01-11T06:41:31;100016.66;;;-6.83;76.99
25610;BME280;13479;49.044;8.716;2024-01-11T06:43:56;100003.72;;;-6.69;77.38
25610;BME280;13479;49.044;8.716;2024-01-11T06:46:22;99988.22;;;-6.36;77.65
25610;BME280;13479;49.044;8.716;2024-01-11T06:48:48;99998.41;;;-5.93;77.28
25610;BME280;13479;49.044;8.716;2024-01-11T06:51:15;100062.13;;;-5.68;75.98
25610;BME280;13479;49.044;8.716;2024-01-11T06:53:41;100137.19;;;-5.73;75.75
25610;BME280;13479;49.044;8.716;2024-01-11T06:56:18;100197.56;;;-5.80;74.83
25610;BME280;13479;49.044;8.716;2024-01-11T06:58:44;100241.53;;;-5.80;75.08
25610;BME280;13479;49.044;8.716;2024-01-11T07:01:10;100264.78;;;-5.99;75.13
25610;BME280;13479;49.044;8.716;2024-01-11T07:03:35;100247.50;;;-6.25;75.39
25610;BME280;13479;49.044;8.716;2024-01-11T07:06:01;100204.41;;;-6.35;76.28
25610;BME280;13479;49.044;8.716;2024-01-11T07:08:26;100182.88;;;-6.48;76.90
25610;BME280;13479;49.044;8.716;2024-01-11T07:10:52;100139.81;;;-6.47;76.81
25610;BME280;13479;49.044;8.716;2024-01-11T07:13:17;100101.91;;;-6.41;77.46
25610;BME280;13479;49.044;8.716;2024-01-11T07:15:43;100087.25;;;-6.12;76.83
25610;BME280;13479;49.044;8.716;2024-01-11T07:18:09;100112.19;;;-5.99;76.38
25610;BME280;13479;49.044;8.716;2024-01-11T07:20:35;100128.63;;;-6.22;76.81
25610;BME280;13479;49.044;8.716;2024-01-11T07:23:00;100114.84;;;-6.30;76.85
25610;BME280;13479;49.044;8.716;2024-01-11T07:25:26;100102.78;;;-6.37;77.14
25610;BME280;13479;49.044;8.716;2024-01-11T07:27:51;100076.94;;;-6.28;76.96
25610;BME280;13479;49.044;8.716;2024-01-11T07:30:17;100070.03;;;-6.23;77.35
25610;BME280;13479;49.044;8.716;2024-01-11T07:32:44;100070.03;;;-6.16;77.71
25610;BME280;13479;49.044;8.716;2024-01-11T07:35:09;100084.66;;;-6.17;77.75
25610;BME280;13479;49.044;8.716;2024-01-11T07:37:36;100094.09;;;-5.99;77.42
25610;BME280;13479;49.044;8.716;2024-01-11T07:40:02;100127.72;;;-5.96;77.18
25610;BME280;13479;49.044;8.716;2024-01-11T07:42:27;100136.31;;;-5.95;76.62
25610;BME280;13479;49.044;8.716;2024-01-11T07:44:53;100133.75;;;-5.91;77.28
25610;BME280;13479;49.044;8.716;2024-01-11T07:47:18;100128.56;;;-5.83;76.87
25610;BME280;13479;49.044;8.716;2024-01-11T07:49:43;100118.22;;;-5.72;77.29
25610;BME280;13479;49.044;8.716;2024-01-11T07:52:09;100117.31;;;-5.62;77.34
25610;BME280;13479;49.044;8.716;2024-01-11T07:54:34;100114.72;;;-5.55;77.85
25610;BME280;13479;49.044;8.716;2024-01-11T07:57:00;100110.34;;;-5.38;77.83
25610;BME280;13479;49.044;8.716;2024-01-11T07:59:27;100114.38;;;-4.75;76.99
25610;BME280;13479;49.044;8.716;2024-01-11T08:01:52;100178.59;;;-3.86;75.99
25610;BME280;13479;49.044;8.716;2024-01-11T08:04:18;100333.69;;;-3.06;74.26
25610;BME280;13479;49.044;8.716;2024-01-11T08:06:44;100541.84;;;-2.25;70.91
25610;BME280;13479;49.044;8.716;2024-01-11T08:09:10;100529.81;;;-1.52;68.70
25610;BME280;13479;49.044;8.716;2024-01-11T08:11:35;100439.28;;;-0.80;67.56
25610;BME280;13479;49.044;8.716;2024-01-11T08:14:01;100390.25;;;-0.12;62.82
25610;BME280;13479;49.044;8.716;2024-01-11T08:16:27;100350.88;;;0.74;62.31
25610;BME280;13479;49.044;8.716;2024-01-11T08:18:53;100333.72;;;1.33;59.29
25610;BME280;13479;49.044;8.716;2024-01-11T08:21:19;100345.25;;;1.89;55.79
25610;BME280;13479;49.044;8.716;2024-01-11T08:23:44;100349.56;;;2.50;54.32
25610;BME280;13479;49.044;8.716;2024-01-11T08:26:13;100367.84;;;3.06;50.25
25610;BME280;13479;49.044;8.716;2024-01-11T08:28:44;100360.81;;;3.32;48.82
25610;BME280;13479;49.044;8.716;2024-01-11T08:31:09;100370.22;;;3.39;47.65
25610;BME280;13479;49.044;8.716;2024-01-11T08:33:34;100365.78;;;3.42;46.88
25610;BME280;13479;49.044;8.716;2024-01-11T08:36:02;100360.94;;;3.54;47.56
25610;BME280;13479;49.044;8.716;2024-01-11T08:38:29;100359.09;;;3.82;46.02
25610;BME280;13479;49.044;8.716;2024-01-11T08:40:54;100350.94;;;3.90;46.26
25610;BME280;13479;49.044;8.716;2024-01-11T08:43:20;100352.41;;;3.97;45.03
25610;BME280;13479;49.044;8.716;2024-01-11T08:45:45;100355.00;;;3.98;44.89
25610;BME280;13479;49.044;8.716;2024-01-11T08:48:12;100366.63;;;4.15;45.13
25610;BME280;13479;49.044;8.716;2024-01-11T08:50:37;100354.84;;;4.25;44.49
25610;BME280;13479;49.044;8.716;2024-01-11T08:53:03;100353.72;;;4.32;44.82
25610;BME280;13479;49.044;8.716;2024-01-11T08:55:28;100348.31;;;4.36;45.28
25610;BME280;13479;49.044;8.716;2024-01-11T08:57:53;100351.16;;;4.53;45.18
25610;BME280;13479;49.044;8.716;2024-01-11T09:00:19;100345.00;;;4.75;44.42
25610;BME280;13479;49.044;8.716;2024-01-11T09:02:44;100355.28;;;5.24;44.11
25610;BME280;13479;49.044;8.716;2024-01-11T09:05:10;100365.19;;;5.59;42.46
25610;BME280;13479;49.044;8.716;2024-01-11T09:07:36;100377.81;;;5.71;40.50
25610;BME280;13479;49.044;8.716;2024-01-11T09:10:02;100377.41;;;5.61;40.29
25610;BME280;13479;49.044;8.716;2024-01-11T09:12:28;100387.06;;;5.40;40.40
25610;BME280;13479;49.044;8.716;2024-01-11T09:14:53;100383.50;;;5.20;40.52
25610;BME280;13479;49.044;8.716;2024-01-11T09:17:19;100367.63;;;4.79;41.31
25610;BME280;13479;49.044;8.716;2024-01-11T09:19:45;100353.78;;;4.53;41.36
25610;BME280;13479;49.044;8.716;2024-01-11T09:22:10;100343.31;;;4.74;42.24
25610;BME280;13479;49.044;8.716;2024-01-11T09:24:36;100366.09;;;4.95;41.49
25610;BME280;13479;49.044;8.716;2024-01-11T09:27:01;100368.13;;;4.89;41.30
25610;BME280;13479;49.044;8.716;2024-01-11T09:29:26;100369.63;;;4.74;40.77
25610;BME280;13479;49.044;8.716;2024-01-11T09:31:53;100368.00;;;4.70;42.27
25610;BME280;13479;49.044;8.716;2024-01-11T09:34:18;100361.03;;;4.69;42.59
25610;BME280;13479;49.044;8.716;2024-01-11T09:36:43;100366.88;;;4.77;42.17
25610;BME280;13479;49.044;8.716;2024-01-11T09:39:10;100359.09;;;4.74;42.16
25610;BME280;13479;49.044;8.716;2024-01-11T09:41:37;100360.53;;;5.03;41.48
25610;BME280;13479;49.044;8.716;2024-01-11T09:44:04;100373.50;;;5.08;41.06
25610;BME280;13479;49.044;8.716;2024-01-11T09:46:31;100365.47;;;5.32;40.73
25610;BME280;13479;49.044;8.716;2024-01-11T09:48:58;100383.47;;;5.82;40.34
25610;BME280;13479;49.044;8.716;2024-01-11T09:51:25;100381.19;;;6.33;39.79
25610;BME280;13479;49.044;8.716;2024-01-11T09:53:51;100389.53;;;6.43;38.54
25610;BME280;13479;49.044;8.716;2024-01-11T09:56:18;100389.75;;;6.58;39.16
25610;BME280;13479;49.044;8.716;2024-01-11T09:58:46;100391.53;;;6.94;38.79
25610;BME280;13479;49.044;8.716;2024-01-11T10:01:15;100389.84;;;7.28;38.15
25610;BME280;13479;49.044;8.716;2024-01-11T10:03:41;100379.53;;;7.41;37.87
25610;BME280;13479;49.044;8.716;2024-01-11T10:06:11;100375.88;;;7.77;37.19
25610;BME280;13479;49.044;8.716;2024-01-11T10:08:37;100373.88;;;7.98;35.63
25610;BME280;13479;49.044;8.716;2024-01-11T10:11:03;100376.63;;;7.46;36.08
25610;BME280;13479;49.044;8.716;2024-01-11T10:13:30;100361.56;;;7.30;36.85
25610;BME280;13479;49.044;8.716;2024-01-11T10:16:05;100355.19;;;7.17;37.17
25610;BME280;13479;49.044;8.716;2024-01-11T10:18:31;100364.34;;;7.27;37.33
25610;BME280;13479;49.044;8.716;2024-01-11T10:20:57;100358.78;;;7.33;37.32
25610;BME280;13479;49.044;8.716;2024-01-11T10:23:23;100360.41;;;7.36;37.03
25610;BME280;13479;49.044;8.716;2024-01-11T10:25:49;100353.09;;;7.06;37.09
25610;BME280;13479;49.044;8.716;2024-01-11T10:28:14;100346.81;;;6.91;37.61
25610;BME280;13479;49.044;8.716;2024-01-11T10:30:41;100350.84;;;6.98;37.43
25610;BME280;13479;49.044;8.716;2024-01-11T10:33:07;100340.44;;;6.95;38.02
25610;BME280;13479;49.044;8.716;2024-01-11T10:35:34;100341.06;;;7.18;38.03
25610;BME280;13479;49.044;8.716;2024-01-11T10:38:06;100348.03;;;7.54;37.42
25610;BME280;13479;49.044;8.716;2024-01-11T10:40:34;100359.81;;;7.64;36.93
25610;BME280;13479;49.044;8.716;2024-01-11T10:43:01;100354.88;;;7.58;37.17
25610;BME280;13479;49.044;8.716;2024-01-11T10:45:28;100363.47;;;8.11;36.20
25610;BME280;13479;49.044;8.716;2024-01-11T10:48:00;100361.47;;;8.16;36.00
25610;BME280;13479;49.044;8.716;2024-01-11T10:50:30;100375.22;;;8.23;35.44
25610;BME280;13479;49.044;8.716;2024-01-11T10:55:34;100378.00;;;8.04;35.87
25610;BME280;13479;49.044;8.716;2024-01-11T10:58:00;100358.81;;;7.83;36.69
25610;BME280;13479;49.044;8.716;2024-01-11T11:00:27;100357.47;;;7.76;36.25
25610;BME280;13479;49.044;8.716;2024-01-11T11:02:54;100349.53;;;7.76;36.33
25610;BME280;13479;49.044;8.716;2024-01-11T11:05:20;100363.38;;;7.63;36.33
25610;BME280;13479;49.044;8.716;2024-01-11T11:07:48;100368.78;;;7.26;36.77
25610;BME280;13479;49.044;8.716;2024-01-11T11:10:15;100354.69;;;6.73;37.87
25610;BME280;13479;49.044;8.716;2024-01-11T11:12:43;100330.91;;;6.19;38.56
25610;BME280;13479;49.044;8.716;2024-01-11T11:15:11;100305.63;;;5.75;39.39
25610;BME280;13479;49.044;8.716;2024-01-11T11:17:38;100292.91;;;5.45;40.50
25610;BME280;13479;49.044;8.716;2024-01-11T11:20:06;100283.59;;;5.17;41.48
25610;BME280;13479;49.044;8.716;2024-01-11T11:22:34;100271.34;;;5.16;42.17
25610;BME280;13479;49.044;8.716;2024-01-11T11:25:03;100263.72;;;5.10;42.33
25610;BME280;13479;49.044;8.716;2024-01-11T11:27:31;100259.47;;;5.26;42.49
25610;BME280;13479;49.044;8.716;2024-01-11T11:29:56;100247.91;;;5.31;42.54
25610;BME280;13479;49.044;8.716;2024-01-11T11:32:37;100242.47;;;5.15;42.47
25610;BME280;13479;49.044;8.716;2024-01-11T11:35:04;100227.38;;;5.18;42.40
25610;BME280;13479;49.044;8.716;2024-01-11T11:37:30;100225.09;;;4.90;42.52
25610;BME280;13479;49.044;8.716;2024-01-11T11:39:57;100214.09;;;4.59;42.90
25610;BME280;13479;49.044;8.716;2024-01-11T11:42:23;100219.97;;;4.23;43.51
25610;BME280;13479;49.044;8.716;2024-01-11T11:44:50;100209.03;;;4.12;43.96
25610;BME280;13479;49.044;8.716;2024-01-11T11:47:22;100191.91;;;3.57;45.37
25610;BME280;13479;49.044;8.716;2024-01-11T11:52:37;100190.44;;;2.77;47.01
25610;BME280;13479;49.044;8.716;2024-01-11T11:55:03;100167.34;;;2.63;47.82
25610;BME280;13479;49.044;8.716;2024-01-11T11:57:30;100169.16;;;2.36;48.63
25610;BME280;13479;49.044;8.716;2024-01-11T11:59:58;100164.84;;;2.33;48.64
25610;BME280;13479;49.044;8.716;2024-01-11T12:02:27;100160.66;;;2.27;49.08
25610;BME280;13479;49.044;8.716;2024-01-11T12:04:53;100154.88;;;1.91;50.05
25610;BME280;13479;49.044;8.716;2024-01-11T12:07:22;100154.41;;;1.78;50.70
25610;BME280;13479;49.044;8.716;2024-01-11T12:09:48;100133.88;;;1.64;50.79
25610;BME280;13479;49.044;8.716;2024-01-11T12:12:14;100130.38;;;1.65;50.80
25610;BME280;13479;49.044;8.716;2024-01-11T12:14:41;100118.97;;;1.67;51.43
25610;BME280;13479;49.044;8.716;2024-01-11T12:17:06;100125.28;;;1.60;51.74
25610;BME280;13479;49.044;8.716;2024-01-11T12:19:32;100120.09;;;1.59;51.42
25610;BME280;13479;49.044;8.716;2024-01-11T12:21:58;100119.53;;;1.49;51.51
25610;BME280;13479;49.044;8.716;2024-01-11T12:24:23;100111.25;;;1.34;51.97
25610;BME280;13479;49.044;8.716;2024-01-11T12:26:49;100122.38;;;1.41;52.40
25610;BME280;13479;49.044;8.716;2024-01-11T12:29:17;100118.97;;;1.39;52.28
25610;BME280;13479;49.044;8.716;2024-01-11T12:31:43;100112.09;;;1.35;52.30
25610;BME280;13479;49.044;8.716;2024-01-11T12:34:09;100119.50;;;1.50;51.87
25610;BME280;13479;49.044;8.716;2024-01-11T12:36:36;100114.56;;;1.39;52.28
25610;BME280;13479;49.044;8.716;2024-01-11T12:39:01;100107.78;;;1.34;52.81
25610;BME280;13479;49.044;8.716;2024-01-11T12:41:29;100100.00;;;1.31;52.63
25610;BME280;13479;49.044;8.716;2024-01-11T12:43:54;100086.91;;;1.32;52.83
25610;BME280;13479;49.044;8.716;2024-01-11T12:46:20;100090.50;;;1.28;52.78
25610;BME280;13479;49.044;8.716;2024-01-11T12:48:46;100091.59;;;1.21;53.04
25610;BME280;13479;49.044;8.716;2024-01-11T12:51:12;100101.34;;;1.16;53.71
25610;BME280;13479;49.044;8.716;2024-01-11T12:53:37;100089.91;;;1.18;52.80
25610;BME280;13479;49.044;8.716;2024-01-11T12:56:06;100091.38;;;1.29;52.65
25610;BME280;13479;49.044;8.716;2024-01-11T12:58:33;100084.97;;;1.09;52.98
25610;BME280;13479;49.044;8.716;2024-01-11T13:00:59;100079.19;;;0.98;53.62
25610;BME280;13479;49.044;8.716;2024-01-11T13:03:25;100081.53;;;1.07;53.98
25610;BME280;13479;49.044;8.716;2024-01-11T13:05:52;100077.25;;;1.04;53.87
25610;BME280;13479;49.044;8.716;2024-01-11T13:08:17;100091.63;;;1.19;53.26
25610;BME280;13479;49.044;8.716;2024-01-11T13:10:43;100096.78;;;1.22;53.45
25610;BME280;13479;49.044;8.716;2024-01-11T13:13:08;100091.91;;;1.10;53.51
25610;BME280;13479;49.044;8.716;2024-01-11T13:15:33;100109.41;;;1.38;52.67
25610;BME280;13479;49.044;8.716;2024-01-11T13:18:02;100141.56;;;1.42;52.58
25610;BME280;13479;49.044;8.716;2024-01-11T13:20:28;100150.03;;;1.50;51.66
25610;BME280;13479;49.044;8.716;2024-01-11T13:23:16;100172.91;;;1.43;52.08
25610;BME280;13479;49.044;8.716;2024-01-11T13:25:44;100149.78;;;1.29;52.56
25610;BME280;13479;49.044;8.716;2024-01-11T13:28:10;100133.13;;;1.32;52.73
25610;BME280;13479;49.044;8.716;2024-01-11T13:30:42;100130.22;;;1.41;51.97
25610;BME280;13479;49.044;8.716;2024-01-11T13:33:09;100122.66;;;1.32;52.42
25610;BME280;13479;49.044;8.716;2024-01-11T13:35:36;100120.69;;;1.40;52.22
25610;BME280;13479;49.044;8.716;2024-01-11T13:38:02;100136.47;;;1.37;52.06
25610;BME280;13479;49.044;8.716;2024-01-11T13:40:29;100136.03;;;1.51;52.05
25610;BME280;13479;49.044;8.716;2024-01-11T13:42:55;100156.91;;;1.52;51.90
25610;BME280;13479;49.044;8.716;2024-01-11T13:45:21;100165.41;;;1.61;51.23
25610;BME280;13479;49.044;8.716;2024-01-11T13:47:46;100179.50;;;1.57;51.55
25610;BME280;13479;49.044;8.716;2024-01-11T13:50:12;100194.44;;;1.53;51.23
25610;BME280;13479;49.044;8.716;2024-01-11T13:52:37;100197.81;;;1.57;51.74
25610;BME280;13479;49.044;8.716;2024-01-11T13:55:03;100195.41;;;1.50;52.14
25610;BME280;13479;49.044;8.716;2024-01-11T13:57:29;100179.28;;;1.34;52.39
25610;BME280;13479;49.044;8.716;2024-01-11T13:59:54;100169.22;;;1.50;51.84
25610;BME280;13479;49.044;8.716;2024-01-11T14:02:20;100172.53;;;1.56;51.51
25610;BME280;13479;49.044;8.716;2024-01-11T14:04:46;100187.97;;;1.65;51.56
25610;BME280;13479;49.044;8.716;2024-01-11T14:07:11;100191.00;;;1.51;52.22
25610;BME280;13479;49.044;8.716;2024-01-11T14:09:37;100175.59;;;1.70;51.46
25610;BME280;13479;49.044;8.716;2024-01-11T14:12:02;100185.72;;;1.52;52.25
25610;BME280;13479;49.044;8.716;2024-01-11T14:14:27;100187.50;;;1.80;51.80
25610;BME280;13479;49.044;8.716;2024-01-11T14:16:53;100216.75;;;1.66;51.82
25610;BME280;13479;49.044;8.716;2024-01-11T14:19:18;100211.13;;;1.79;51.03
25610;BME280;13479;49.044;8.716;2024-01-11T14:21:43;100222.78;;;1.68;51.56
25610;BME280;13479;49.044;8.716;2024-01-11T14:24:09;100233.28;;;1.67;51.18
25610;BME280;13479;49.044;8.716;2024-01-11T14:26:34;100233.28;;;1.67;51.25
25610;BME280;13479;49.044;8.716;2024-01-11T14:29:00;100232.25;;;1.73;51.31
25610;BME280;13479;49.044;8.716;2024-01-11T14:31:26;100229.06;;;1.63;52.01
25610;BME280;13479;49.044;8.716;2024-01-11T14:33:52;100223.41;;;1.77;51.05
25610;BME280;13479;49.044;8.716;2024-01-11T14:36:17;100239.88;;;1.80;51.30
25610;BME280;13479;49.044;8.716;2024-01-11T14:38:42;100260.06;;;1.77;51.42
25610;BME280;13479;49.044;8.716;2024-01-11T14:41:08;100237.00;;;1.60;51.82
25610;BME280;13479;49.044;8.716;2024-01-11T14:43:34;100215.81;;;1.37;52.12
25610;BME280;13479;49.044;8.716;2024-01-11T14:46:00;100196.69;;;1.35;52.09
25610;BME280;13479;49.044;8.716;2024-01-11T14:48:25;100178.88;;;1.48;51.91
25610;BME280;13479;49.044;8.716;2024-01-11T14:50:51;100170.28;;;1.43;52.32
25610;BME280;13479;49.044;8.716;2024-01-11T14:53:17;100158.91;;;1.46;52.11
25610;BME280;13479;49.044;8.716;2024-01-11T14:55:43;100177.09;;;1.49;52.14
25610;BME280;13479;49.044;8.716;2024-01-11T14:58:08;100182.34;;;1.49;52.33
25610;BME280;13479;49.044;8.716;2024-01-11T15:00:34;100176.19;;;1.51;51.93
25610;BME280;13479;49.044;8.716;2024-01-11T15:03:00;100185.69;;;1.54;52.15
25610;BME280;13479;49.044;8.716;2024-01-11T15:05:25;100197.13;;;1.51;51.63
25610;BME280;13479;49.044;8.716;2024-01-11T15:07:50;100179.38;;;1.31;52.42
25610;BME280;13479;49.044;8.716;2024-01-11T15:10:16;100179.47;;;1.28;52.29
25610;BME280;13479;49.044;8.716;2024-01-11T15:12:42;100171.06;;;1.17;52.66
25610;BME280;13479;49.044;8.716;2024-01-11T15:15:08;100156.31;;;1.14;52.64
25610;BME280;13479;49.044;8.716;2024-01-11T15:17:34;100165.13;;;1.12;52.88
25610;BME280;13479;49.044;8.716;2024-01-11T15:19:59;100167.09;;;1.03;53.18
25610;BME280;13479;49.044;8.716;2024-01-11T15:22:26;100161.91;;;1.02;53.45
25610;BME280;13479;49.044;8.716;2024-01-11T15:24:52;100162.16;;;0.92;53.75
25610;BME280;13479;49.044;8.716;2024-01-11T15:27:20;100153.59;;;0.87;53.88
25610;BME280;13479;49.044;8.716;2024-01-11T15:29:46;100158.31;;;0.74;54.17
25610;BME280;13479;49.044;8.716;2024-01-11T15:32:11;100155.97;;;0.64;54.46
25610;BME280;13479;49.044;8.716;2024-01-11T15:34:36;100155.94;;;0.65;54.94
25610;BME280;13479;49.044;8.716;2024-01-11T15:37:02;100157.69;;;0.65;55.23
25610;BME280;13479;49.044;8.716;2024-01-11T15:39:27;100157.53;;;0.71;55.82
25610;BME280;13479;49.044;8.716;2024-01-11T15:41:53;100159.59;;;0.59;56.07
25610;BME280;13479;49.044;8.716;2024-01-11T15:44:19;100153.00;;;0.44;56.93
25610;BME280;13479;49.044;8.716;2024-01-11T15:46:44;100147.09;;;0.36;57.08
25610;BME280;13479;49.044;8.716;2024-01-11T15:49:11;100144.34;;;0.08;57.73
25610;BME280;13479;49.044;8.716;2024-01-11T15:51:37;100133.53;;;-0.13;57.92
25610;BME280;13479;49.044;8.716;2024-01-11T15:54:02;100148.47;;;-0.20;58.50
25610;BME280;13479;49.044;8.716;2024-01-11T15:56:27;100143.91;;;-0.10;58.45
25610;BME280;13479;49.044;8.716;2024-01-11T15:58:52;100143.06;;;-0.12;58.86
25610;BME280;13479;49.044;8.716;2024-01-11T16:01:18;100157.13;;;-0.18;58.96
25610;BME280;13479;49.044;8.716;2024-01-11T16:03:43;100163.56;;;-0.33;59.07
25610;BME280;13479;49.044;8.716;2024-01-11T16:06:11;100161.03;;;-0.36;59.33
25610;BME280;13479;49.044;8.716;2024-01-11T16:08:36;100157.06;;;-0.52;59.49
25610;BME280;13479;49.044;8.716;2024-01-11T16:11:01;100146.75;;;-0.58;59.95
25610;BME280;13479;49.044;8.716;2024-01-11T16:13:27;100156.50;;;-0.67;60.53
25610;BME280;13479;49.044;8.716;2024-01-11T16:15:52;100149.59;;;-0.69;60.56
25610;BME280;13479;49.044;8.716;2024-01-11T16:18:21;100153.84;;;-0.64;60.61
25610;BME280;13479;49.044;8.716;2024-01-11T16:20:47;100161.09;;;-0.78;60.88
25610;BME280;13479;49.044;8.716;2024-01-11T16:23:14;100168.03;;;-0.77;61.00
25610;BME280;13479;49.044;8.716;2024-01-11T16:25:40;100167.25;;;-0.82;61.30
25610;BME280;13479;49.044;8.716;2024-01-11T16:28:05;100172.81;;;-0.99;61.81
25610;BME280;13479;49.044;8.716;2024-01-11T16:30:30;100168.81;;;-1.17;61.95
25610;BME280;13479;49.044;8.716;2024-01-11T16:32:56;100165.69;;;-1.35;62.27
25610;BME280;13479;49.044;8.716;2024-01-11T16:35:21;100174.66;;;-1.51;62.53
25610;BME280;13479;49.044;8.716;2024-01-11T16:37:47;100174.03;;;-1.64;62.18
25610;BME280;13479;49.044;8.716;2024-01-11T16:40:13;100168.16;;;-1.77;62.67
25610;BME280;13479;49.044;8.716;2024-01-11T16:42:38;100163.06;;;-1.83;62.43
25610;BME280;13479;49.044;8.716;2024-01-11T16:45:04;100156.06;;;-1.81;63.13
25610;BME280;13479;49.044;8.716;2024-01-11T16:47:29;100158.72;;;-1.83;63.47
25610;BME280;13479;49.044;8.716;2024-01-11T16:50:02;100162.97;;;-1.77;63.88
25610;BME280;13479;49.044;8.716;2024-01-11T16:52:29;100160.56;;;-1.91;63.90
25610;BME280;13479;49.044;8.716;2024-01-11T16:54:54;100159.84;;;-1.98;64.08
25610;BME280;13479;49.044;8.716;2024-01-11T16:57:20;100152.06;;;-2.01;64.73
25610;BME280;13479;49.044;8.716;2024-01-11T16:59:45;100164.44;;;-2.15;65.02
25610;BME280;13479;49.044;8.716;2024-01-11T17:02:10;100167.25;;;-2.29;65.22
25610;BME280;13479;49.044;8.716;2024-01-11T17:04:35;100176.03;;;-2.38;65.52
25610;BME280;13479;49.044;8.716;2024-01-11T17:07:01;100174.44;;;-2.47;65.81
25610;BME280;13479;49.044;8.716;2024-01-11T17:09:26;100165.50;;;-2.29;66.59
25610;BME280;13479;49.044;8.716;2024-01-11T17:11:51;100175.19;;;-2.40;66.71
25610;BME280;13479;49.044;8.716;2024-01-11T17:14:17;100170.88;;;-2.41;67.11
25610;BME280;13479;49.044;8.716;2024-01-11T17:16:42;100171.81;;;-2.47;67.17
25610;BME280;13479;49.044;8.716;2024-01-11T17:19:07;100178.06;;;-2.59;66.89
25610;BME280;13479;49.044;8.716;2024-01-11T17:21:32;100183.41;;;-2.70;67.19
25610;BME280;13479;49.044;8.716;2024-01-11T17:23:58;100183.50;;;-2.76;67.38
25610;BME280;13479;49.044;8.716;2024-01-11T17:26:23;100179.94;;;-2.70;67.77
25610;BME280;13479;49.044;8.716;2024-01-11T17:28:48;100157.22;;;-2.56;68.27
25610;BME280;13479;49.044;8.716;2024-01-11T17:31:14;100164.06;;;-2.49;68.57
25610;BME280;13479;49.044;8.716;2024-01-11T17:33:39;100164.31;;;-2.67;68.29
25610;BME280;13479;49.044;8.716;2024-01-11T17:36:04;100171.28;;;-2.69;68.47
25610;BME280;13479;49.044;8.716;2024-01-11T17:38:30;100164.47;;;-2.80;68.70
25610;BME280;13479;49.044;8.716;2024-01-11T17:40:55;100148.84;;;-2.76;69.31
25610;BME280;13479;49.044;8.716;2024-01-11T17:43:21;100164.53;;;-2.84;69.50
25610;BME280;13479;49.044;8.716;2024-01-11T17:45:46;100160.34;;;-2.95;69.40
25610;BME280;13479;49.044;8.716;2024-01-11T17:48:14;100161.25;;;-2.99;69.70
25610;BME280;13479;49.044;8.716;2024-01-11T17:50:40;100159.41;;;-2.89;69.83
25610;BME280;13479;49.044;8.716;2024-01-11T17:53:05;100159.34;;;-2.86;70.32
25610;BME280;13479;49.044;8.716;2024-01-11T17:55:31;100157.72;;;-2.93;70.28
25610;BME280;13479;49.044;8.716;2024-01-11T17:57:56;100154.22;;;-2.92;70.81